createdAt,value
2022-10-02T00:01:28.366Z,12.03
2022-10-02T00:06:32.495Z,12.00
2022-10-02T00:11:36.641Z,11.96
2022-10-02T00:16:39.422Z,11.99
2022-10-02T00:21:43.027Z,12.05
2022-10-02T00:26:47.227Z,12.06
2022-10-02T00:31:51.442Z,12.11
2022-10-02T00:36:55.547Z,12.19
2022-10-02T00:41:59.688Z,12.25
2022-10-02T00:47:03.868Z,12.23
2022-10-02T00:52:08.018Z,12.26
2022-10-02T00:57:12.198Z,12.29
2022-10-02T01:02:16.408Z,12.35
2022-10-02T01:07:20.500Z,12.48
2022-10-02T01:12:24.654Z,12.53
2022-10-02T01:17:28.820Z,12.55
2022-10-02T01:22:33.007Z,12.60
2022-10-02T01:27:39.225Z,12.71
2022-10-02T01:32:41.283Z,12.83
2022-10-02T01:37:45.463Z,12.87
2022-10-02T01:42:49.633Z,12.97
2022-10-02T01:47:53.795Z,13.07
2022-10-02T01:52:57.931Z,13.16
2022-10-02T01:58:02.117Z,13.21
2022-10-02T02:03:04.377Z,13.23
2022-10-02T02:08:08.542Z,13.27
2022-10-02T02:13:12.701Z,13.29
2022-10-02T02:18:16.839Z,13.33
2022-10-02T02:23:21.000Z,13.38
2022-10-02T02:28:25.200Z,13.46
2022-10-02T02:33:29.346Z,13.48
2022-10-02T02:38:33.483Z,13.51
2022-10-02T02:43:37.662Z,13.54
2022-10-02T02:48:41.827Z,13.51
2022-10-02T02:53:45.955Z,13.54
2022-10-02T02:58:50.121Z,13.55
2022-10-02T03:03:54.283Z,13.54
2022-10-02T03:08:58.440Z,13.49
2022-10-02T03:14:02.640Z,13.44
2022-10-02T03:19:06.773Z,13.40
2022-10-02T03:24:10.934Z,13.34
2022-10-02T03:34:19.243Z,13.30
2022-10-02T03:39:25.733Z,13.38
2022-10-02T03:44:27.569Z,13.40
2022-10-02T03:49:31.786Z,13.41
2022-10-02T03:54:34.024Z,13.48
2022-10-02T03:59:38.223Z,13.60
2022-10-02T04:04:40.411Z,13.64
2022-10-02T04:09:44.606Z,13.66
2022-10-02T04:14:48.784Z,13.62
2022-10-02T04:19:52.909Z,13.62
2022-10-02T04:24:57.068Z,13.67
2022-10-02T04:30:01.218Z,13.70
2022-10-02T04:35:05.404Z,13.74
2022-10-02T04:40:09.634Z,13.71
2022-10-02T04:45:13.732Z,13.65
2022-10-02T04:50:17.897Z,13.61
2022-10-02T04:55:22.090Z,13.57
2022-10-02T05:00:26.210Z,13.52
2022-10-02T05:05:30.370Z,13.50
2022-10-02T05:10:34.631Z,13.48
2022-10-02T05:15:38.664Z,13.47
2022-10-02T05:20:42.865Z,13.41
2022-10-02T05:25:46.999Z,13.35
2022-10-02T05:30:51.165Z,13.30
2022-10-02T05:35:55.304Z,13.25
2022-10-02T05:40:59.501Z,13.20
2022-10-02T05:46:03.663Z,13.17
2022-10-02T05:51:05.918Z,13.16
2022-10-02T05:56:10.085Z,13.19
2022-10-02T06:01:14.327Z,13.19
2022-10-02T06:06:18.408Z,13.19
2022-10-02T06:11:22.539Z,13.21
2022-10-02T06:16:26.752Z,13.22
2022-10-02T06:21:30.882Z,13.20
2022-10-02T06:26:37.343Z,13.18
2022-10-02T06:31:39.325Z,13.17
2022-10-02T06:36:43.365Z,13.20
2022-10-02T06:41:47.521Z,13.28
2022-10-02T06:46:51.690Z,13.41
2022-10-02T06:51:55.921Z,13.54
2022-10-02T06:57:00.008Z,13.63
2022-10-02T07:02:04.169Z,13.69
2022-10-02T07:07:08.336Z,13.80
2022-10-02T07:12:12.462Z,13.89
2022-10-02T07:17:19.298Z,13.98
2022-10-02T07:22:43.481Z,14.04
2022-10-02T07:27:24.932Z,14.12
2022-10-02T07:32:29.115Z,14.23
2022-10-02T07:37:31.404Z,14.26
2022-10-02T07:42:35.535Z,14.32
2022-10-02T07:47:37.850Z,14.47
2022-10-02T07:52:41.994Z,14.54
2022-10-02T07:57:44.256Z,14.61
2022-10-02T08:02:48.526Z,14.67
2022-10-02T08:07:52.551Z,14.60
2022-10-02T08:18:16.568Z,14.54
2022-10-02T08:23:05.076Z,14.49
2022-10-02T08:28:09.270Z,14.51
2022-10-02T08:33:13.409Z,14.58
2022-10-02T08:38:17.553Z,14.85
2022-10-02T08:43:21.708Z,15.15
2022-10-02T08:48:25.876Z,15.48
2022-10-02T08:53:30.004Z,15.41
2022-10-02T08:58:34.183Z,15.59
2022-10-02T09:03:38.327Z,15.77
2022-10-02T09:08:40.611Z,15.89
2022-10-02T09:13:44.761Z,16.09
2022-10-02T09:18:48.916Z,16.20
2022-10-02T09:23:53.103Z,15.96
2022-10-02T09:28:57.249Z,15.92
2022-10-02T09:34:01.417Z,15.70
2022-10-02T09:39:05.563Z,15.45
2022-10-02T09:44:11.861Z,15.28
2022-10-02T09:49:11.994Z,15.46
2022-10-02T09:54:16.199Z,15.53
2022-10-02T09:59:20.355Z,15.45
2022-10-02T10:04:24.541Z,15.36
2022-10-02T10:14:32.805Z,15.11
2022-10-02T10:19:36.975Z,15.17
2022-10-02T10:24:41.123Z,15.54
2022-10-02T10:29:45.413Z,15.78
2022-10-02T10:34:49.458Z,15.76
2022-10-02T10:39:53.599Z,15.94
2022-10-02T10:44:57.769Z,15.95
2022-10-02T10:50:01.937Z,15.99
2022-10-02T10:55:06.072Z,16.10
2022-10-02T11:00:10.263Z,16.09
2022-10-02T11:05:14.390Z,16.17
2022-10-02T11:10:18.575Z,16.13
2022-10-02T11:15:22.746Z,16.44
2022-10-02T11:20:26.861Z,16.14
2022-10-02T11:25:52.351Z,16.09
2022-10-02T11:30:39.445Z,15.97
2022-10-02T11:35:39.348Z,15.92
2022-10-02T11:40:41.623Z,15.98
2022-10-02T11:45:45.923Z,16.08
2022-10-02T11:50:48.055Z,16.22
2022-10-02T11:55:52.223Z,16.41
2022-10-02T12:00:56.371Z,16.57
2022-10-02T12:06:00.675Z,16.86
2022-10-02T12:11:04.902Z,17.16
2022-10-02T12:16:08.936Z,17.49
2022-10-02T12:21:13.001Z,17.80
2022-10-02T12:26:17.191Z,17.88
2022-10-02T12:31:21.410Z,17.75
2022-10-02T12:36:25.493Z,17.30
2022-10-02T12:41:29.641Z,17.12
2022-10-02T12:46:33.800Z,17.06
2022-10-02T12:51:38.415Z,16.95
2022-10-02T12:56:42.145Z,16.77
2022-10-02T13:01:46.466Z,16.81
2022-10-02T13:06:50.497Z,17.16
2022-10-02T13:11:56.022Z,17.33
2022-10-02T13:16:58.843Z,17.27
2022-10-02T13:22:02.946Z,17.10
2022-10-02T13:27:07.090Z,16.98
2022-10-02T13:32:11.238Z,16.91
2022-10-02T13:37:13.507Z,16.70
2022-10-02T13:42:17.681Z,16.59
2022-10-02T13:47:21.870Z,16.77
2022-10-02T13:52:25.983Z,16.75
2022-10-02T13:57:30.152Z,16.70
2022-10-02T14:02:34.297Z,16.55
2022-10-02T14:07:38.474Z,16.77
2022-10-02T14:12:42.651Z,16.60
2022-10-02T14:17:46.795Z,16.52
2022-10-02T14:22:50.993Z,16.49
2022-10-02T14:27:55.196Z,16.76
2022-10-02T14:32:59.302Z,16.88
2022-10-02T14:38:03.434Z,16.83
2022-10-02T14:43:07.575Z,16.79
2022-10-02T14:48:11.791Z,16.80
2022-10-02T14:53:15.926Z,16.67
2022-10-02T14:58:20.084Z,16.57
2022-10-02T15:03:24.259Z,16.53
2022-10-02T15:08:28.406Z,16.61
2022-10-02T15:13:32.544Z,16.79
2022-10-02T15:18:38.416Z,16.88
2022-10-02T15:23:39.002Z,16.89
2022-10-02T15:28:43.332Z,16.63
2022-10-02T15:33:45.425Z,16.58
2022-10-02T15:38:49.548Z,16.74
2022-10-02T15:43:51.861Z,16.58
2022-10-02T15:48:56.009Z,16.67
2022-10-02T15:53:58.267Z,16.47
2022-10-02T15:59:02.509Z,17.23
2022-10-02T16:04:06.588Z,16.81
2022-10-02T16:09:10.789Z,16.38
2022-10-02T16:14:14.940Z,16.32
2022-10-02T16:19:19.068Z,16.22
2022-10-02T16:24:23.210Z,17.21
2022-10-02T16:29:27.388Z,17.25
2022-10-02T16:34:31.553Z,17.25
2022-10-02T16:39:35.720Z,17.13
2022-10-02T16:44:39.899Z,16.40
2022-10-02T16:49:44.051Z,15.98
2022-10-02T16:54:48.211Z,15.69
2022-10-02T16:59:52.351Z,15.43
2022-10-02T17:04:56.512Z,15.11
2022-10-02T17:10:00.658Z,14.85
2022-10-02T17:15:04.878Z,14.65
2022-10-02T17:20:08.978Z,14.42
2022-10-02T17:25:13.121Z,14.47
2022-10-02T17:30:17.316Z,14.31
2022-10-02T17:35:21.584Z,14.19
2022-10-02T17:40:23.736Z,14.00
2022-10-02T17:45:27.944Z,13.85
2022-10-02T17:50:32.130Z,13.67
2022-10-02T17:55:36.243Z,13.42
2022-10-02T18:00:38.547Z,13.18
2022-10-02T18:05:42.659Z,13.04
2022-10-02T18:10:46.834Z,12.88
2022-10-02T18:15:50.964Z,12.72
2022-10-02T18:20:55.106Z,12.57
2022-10-02T18:25:59.290Z,12.45
2022-10-02T18:31:03.470Z,12.33
2022-10-02T18:36:07.618Z,12.17
2022-10-02T18:41:11.762Z,12.01
2022-10-02T18:46:16.010Z,11.78
2022-10-02T18:51:20.107Z,11.61
2022-10-02T18:56:24.248Z,11.43
2022-10-02T19:01:28.468Z,11.27
2022-10-02T19:06:32.688Z,11.12
2022-10-02T19:11:36.917Z,11.02
2022-10-02T19:16:40.982Z,10.87
2022-10-02T19:21:45.093Z,10.73
2022-10-02T19:26:49.215Z,10.58
2022-10-02T19:31:53.486Z,10.47
2022-10-02T19:36:57.546Z,10.34
2022-10-02T19:42:01.707Z,10.26
2022-10-02T19:47:03.985Z,10.16
2022-10-02T19:52:08.150Z,10.00
2022-10-02T19:57:12.320Z,9.92
2022-10-02T20:02:14.641Z,9.86
2022-10-02T20:07:18.829Z,9.76
2022-10-02T20:12:22.933Z,9.63
2022-10-02T20:17:27.040Z,9.52
2022-10-02T20:22:31.211Z,9.43
2022-10-02T20:27:35.356Z,9.33
2022-10-02T20:32:39.563Z,9.23
2022-10-02T20:37:47.746Z,9.10
2022-10-02T20:42:47.878Z,9.05
2022-10-02T20:47:52.044Z,8.97
2022-10-02T20:52:56.206Z,8.88
2022-10-02T20:58:01.388Z,8.83
2022-10-02T21:03:04.513Z,8.79
2022-10-02T21:08:08.704Z,8.70
2022-10-02T21:13:12.904Z,8.70
2022-10-02T21:18:16.995Z,8.64
2022-10-02T21:23:21.155Z,8.59
2022-10-02T21:28:25.357Z,8.58
2022-10-02T21:33:29.497Z,8.53
2022-10-02T21:38:33.659Z,8.44
2022-10-02T21:43:37.807Z,8.41
2022-10-02T21:48:40.093Z,8.32
2022-10-02T21:53:44.230Z,8.30
2022-10-02T21:58:48.430Z,8.30
2022-10-02T22:03:50.759Z,8.26
2022-10-02T22:08:54.842Z,8.21
2022-10-02T22:13:59.013Z,8.21
2022-10-02T22:19:03.139Z,8.17
2022-10-02T22:24:07.340Z,8.07
2022-10-02T22:29:11.517Z,8.01
2022-10-02T22:34:17.260Z,8.00
2022-10-02T22:39:19.780Z,7.97
2022-10-02T22:44:23.982Z,7.98
2022-10-02T22:49:28.128Z,8.06
2022-10-02T22:54:32.346Z,8.03
2022-10-02T22:59:36.475Z,8.01
2022-10-02T23:04:40.621Z,8.02
2022-10-02T23:09:44.818Z,8.00
2022-10-02T23:14:48.963Z,8.02
2022-10-02T23:19:53.101Z,8.05
2022-10-02T23:24:57.286Z,8.06
2022-10-02T23:30:01.409Z,8.00
2022-10-02T23:35:05.609Z,7.98
2022-10-02T23:40:09.764Z,7.97
2022-10-02T23:45:13.908Z,7.90
2022-10-02T23:50:16.179Z,7.81
2022-10-02T23:55:20.405Z,7.75
